sensor_id;sensor_type;location;lat;lon;timestamp;P1;durP1;ratioP1;P2;durP2;ratioP2
64419;SDS011;50745;48.170;14.516;2023-01-08T00:10:19;3.30;;;2.30;;
64419;SDS011;50745;48.170;14.516;2023-01-08T00:20:34;2.88;;;2.17;;
64419;SDS011;50745;48.170;14.516;2023-01-08T00:30:54;3.55;;;2.20;;
64419;SDS011;50745;48.170;14.516;2023-01-08T00:41:09;3.40;;;2.30;;
64419;SDS011;50745;48.170;14.516;2023-01-08T00:51:31;3.00;;;2.20;;
64419;SDS011;50745;48.170;14.516;2023-01-08T01:01:46;3.42;;;2.20;;
64419;SDS011;50745;48.170;14.516;2023-01-08T01:12:10;3.30;;;2.13;;
64419;SDS011;50745;48.170;14.516;2023-01-08T01:22:24;2.90;;;2.20;;
64419;SDS011;50745;48.170;14.516;2023-01-08T01:32:44;3.50;;;2.30;;
64419;SDS011;50745;48.170;14.516;2023-01-08T01:42:59;3.67;;;2.22;;
64419;SDS011;50745;48.170;14.516;2023-01-08T01:53:22;3.47;;;2.13;;
64419;SDS011;50745;48.170;14.516;2023-01-08T02:03:50;3.17;;;2.10;;
64419;SDS011;50745;48.170;14.516;2023-01-08T02:14:00;3.03;;;2.10;;
64419;SDS011;50745;48.170;14.516;2023-01-08T02:24:37;3.03;;;2.10;;
64419;SDS011;50745;48.170;14.516;2023-01-08T02:34:54;3.22;;;2.03;;
64419;SDS011;50745;48.170;14.516;2023-01-08T02:55:33;2.60;;;2.00;;
64419;SDS011;50745;48.170;14.516;2023-01-08T03:06:00;2.90;;;2.17;;
64419;SDS011;50745;48.170;14.516;2023-01-08T03:16:26;3.05;;;2.28;;
64419;SDS011;50745;48.170;14.516;2023-01-08T03:26:50;2.67;;;2.08;;
64419;SDS011;50745;48.170;14.516;2023-01-08T03:37:06;2.88;;;2.15;;
64419;SDS011;50745;48.170;14.516;2023-01-08T03:47:36;3.10;;;2.10;;
64419;SDS011;50745;48.170;14.516;2023-01-08T03:57:45;2.40;;;2.00;;
64419;SDS011;50745;48.170;14.516;2023-01-08T04:08:14;3.05;;;2.25;;
64419;SDS011;50745;48.170;14.516;2023-01-08T04:18:28;2.88;;;2.20;;
64419;SDS011;50745;48.170;14.516;2023-01-08T04:28:55;6.10;;;2.30;;
64419;SDS011;50745;48.170;14.516;2023-01-08T04:39:03;3.40;;;2.50;;
64419;SDS011;50745;48.170;14.516;2023-01-08T04:49:31;2.88;;;2.10;;
64419;SDS011;50745;48.170;14.516;2023-01-08T04:59:39;3.45;;;2.40;;
64419;SDS011;50745;48.170;14.516;2023-01-08T05:10:08;3.33;;;2.20;;
64419;SDS011;50745;48.170;14.516;2023-01-08T05:20:15;2.70;;;2.10;;
64419;SDS011;50745;48.170;14.516;2023-01-08T05:30:44;2.92;;;2.17;;
64419;SDS011;50745;48.170;14.516;2023-01-08T05:40:52;2.78;;;2.20;;
64419;SDS011;50745;48.170;14.516;2023-01-08T05:51:20;3.13;;;2.28;;
64419;SDS011;50745;48.170;14.516;2023-01-08T06:01:27;3.88;;;2.70;;
64419;SDS011;50745;48.170;14.516;2023-01-08T06:11:56;4.30;;;3.03;;
64419;SDS011;50745;48.170;14.516;2023-01-08T06:22:04;3.87;;;2.97;;
64419;SDS011;50745;48.170;14.516;2023-01-08T06:32:33;4.15;;;3.05;;
64419;SDS011;50745;48.170;14.516;2023-01-08T06:42:40;4.28;;;3.22;;
64419;SDS011;50745;48.170;14.516;2023-01-08T06:53:09;4.15;;;3.08;;
64419;SDS011;50745;48.170;14.516;2023-01-08T07:03:23;4.18;;;3.20;;
64419;SDS011;50745;48.170;14.516;2023-01-08T07:13:44;4.22;;;3.10;;
64419;SDS011;50745;48.170;14.516;2023-01-08T07:24:12;4.20;;;3.20;;
64419;SDS011;50745;48.170;14.516;2023-01-08T07:34:20;4.35;;;3.22;;
64419;SDS011;50745;48.170;14.516;2023-01-08T07:44:48;3.97;;;2.95;;
64419;SDS011;50745;48.170;14.516;2023-01-08T07:54:55;5.05;;;3.20;;
64419;SDS011;50745;48.170;14.516;2023-01-08T08:05:24;4.65;;;3.35;;
64419;SDS011;50745;48.170;14.516;2023-01-08T08:15:32;4.20;;;3.15;;
64419;SDS011;50745;48.170;14.516;2023-01-08T08:26:02;4.03;;;3.00;;
64419;SDS011;50745;48.170;14.516;2023-01-08T08:36:11;3.97;;;3.00;;
64419;SDS011;50745;48.170;14.516;2023-01-08T08:57:07;4.35;;;3.08;;
64419;SDS011;50745;48.170;14.516;2023-01-08T09:07:22;4.43;;;3.20;;
64419;SDS011;50745;48.170;14.516;2023-01-08T09:17:43;4.28;;;3.15;;
64419;SDS011;50745;48.170;14.516;2023-01-08T09:28:01;4.32;;;3.22;;
64419;SDS011;50745;48.170;14.516;2023-01-08T09:38:24;4.45;;;3.30;;
64419;SDS011;50745;48.170;14.516;2023-01-08T09:48:39;4.55;;;3.20;;
64419;SDS011;50745;48.170;14.516;2023-01-08T09:59:01;4.38;;;3.10;;
64419;SDS011;50745;48.170;14.516;2023-01-08T10:09:15;5.00;;;3.50;;
64419;SDS011;50745;48.170;14.516;2023-01-08T10:19:37;4.70;;;3.30;;
64419;SDS011;50745;48.170;14.516;2023-01-08T10:29:51;4.75;;;3.63;;
64419;SDS011;50745;48.170;14.516;2023-01-08T10:40:21;5.05;;;3.85;;
64419;SDS011;50745;48.170;14.516;2023-01-08T10:50:35;5.40;;;3.80;;
64419;SDS011;50745;48.170;14.516;2023-01-08T11:11:31;5.05;;;3.85;;
64419;SDS011;50745;48.170;14.516;2023-01-08T12:03:35;4.85;;;3.60;;
64419;SDS011;50745;48.170;14.516;2023-01-08T12:34:36;5.13;;;4.00;;
64419;SDS011;50745;48.170;14.516;2023-01-08T12:44:59;5.13;;;3.92;;
64419;SDS011;50745;48.170;14.516;2023-01-08T13:05:37;5.05;;;3.85;;
64419;SDS011;50745;48.170;14.516;2023-01-08T13:15:52;4.93;;;3.72;;
64419;SDS011;50745;48.170;14.516;2023-01-08T13:26:13;5.40;;;3.97;;
64419;SDS011;50745;48.170;14.516;2023-01-08T13:36:27;4.90;;;3.80;;
64419;SDS011;50745;48.170;14.516;2023-01-08T13:46:52;4.80;;;3.72;;
64419;SDS011;50745;48.170;14.516;2023-01-08T13:57:11;5.43;;;4.17;;
64419;SDS011;50745;48.170;14.516;2023-01-08T14:07:41;4.97;;;3.70;;
64419;SDS011;50745;48.170;14.516;2023-01-08T14:17:49;4.70;;;3.73;;
64419;SDS011;50745;48.170;14.516;2023-01-08T14:28:18;4.95;;;3.85;;
64419;SDS011;50745;48.170;14.516;2023-01-08T14:38:27;4.97;;;3.70;;
64419;SDS011;50745;48.170;14.516;2023-01-08T14:48:55;5.18;;;3.78;;
64419;SDS011;50745;48.170;14.516;2023-01-08T14:59:07;4.88;;;3.67;;
64419;SDS011;50745;48.170;14.516;2023-01-08T15:09:36;5.30;;;3.85;;
64419;SDS011;50745;48.170;14.516;2023-01-08T15:19:45;4.95;;;3.47;;
64419;SDS011;50745;48.170;14.516;2023-01-08T15:30:23;4.82;;;3.60;;
64419;SDS011;50745;48.170;14.516;2023-01-08T15:40:31;5.18;;;3.70;;
64419;SDS011;50745;48.170;14.516;2023-01-08T15:50:59;5.30;;;3.72;;
64419;SDS011;50745;48.170;14.516;2023-01-08T16:01:14;5.10;;;3.75;;
64419;SDS011;50745;48.170;14.516;2023-01-08T16:11:34;5.22;;;3.92;;
64419;SDS011;50745;48.170;14.516;2023-01-08T16:21:49;4.53;;;3.55;;
64419;SDS011;50745;48.170;14.516;2023-01-08T16:32:10;5.57;;;4.10;;
64419;SDS011;50745;48.170;14.516;2023-01-08T16:42:25;5.40;;;4.05;;
64419;SDS011;50745;48.170;14.516;2023-01-08T16:52:45;5.50;;;4.20;;
64419;SDS011;50745;48.170;14.516;2023-01-08T17:03:00;6.03;;;4.40;;
64419;SDS011;50745;48.170;14.516;2023-01-08T17:13:21;6.17;;;4.50;;
64419;SDS011;50745;48.170;14.516;2023-01-08T17:23:36;5.95;;;4.70;;
64419;SDS011;50745;48.170;14.516;2023-01-08T17:33:56;5.82;;;4.18;;
64419;SDS011;50745;48.170;14.516;2023-01-08T17:44:11;5.53;;;4.10;;
64419;SDS011;50745;48.170;14.516;2023-01-08T17:54:32;5.37;;;4.20;;
64419;SDS011;50745;48.170;14.516;2023-01-08T18:04:47;5.30;;;4.05;;
64419;SDS011;50745;48.170;14.516;2023-01-08T18:15:08;5.30;;;4.00;;
64419;SDS011;50745;48.170;14.516;2023-01-08T18:25:23;5.40;;;4.03;;
64419;SDS011;50745;48.170;14.516;2023-01-08T18:35:43;8.13;;;4.63;;
64419;SDS011;50745;48.170;14.516;2023-01-08T18:45:58;6.38;;;4.43;;
64419;SDS011;50745;48.170;14.516;2023-01-08T18:56:20;5.88;;;4.20;;
64419;SDS011;50745;48.170;14.516;2023-01-08T19:06:35;8.23;;;4.20;;
64419;SDS011;50745;48.170;14.516;2023-01-08T19:16:55;5.10;;;3.75;;
64419;SDS011;50745;48.170;14.516;2023-01-08T19:27:10;4.53;;;3.60;;
64419;SDS011;50745;48.170;14.516;2023-01-08T19:37:30;5.35;;;4.00;;
64419;SDS011;50745;48.170;14.516;2023-01-08T19:47:54;5.25;;;3.72;;
64419;SDS011;50745;48.170;14.516;2023-01-08T19:58:22;5.78;;;3.95;;
64419;SDS011;50745;48.170;14.516;2023-01-08T20:08:38;4.70;;;3.60;;
64419;SDS011;50745;48.170;14.516;2023-01-08T20:18:59;5.28;;;3.67;;
64419;SDS011;50745;48.170;14.516;2023-01-08T20:29:23;4.17;;;3.20;;
64419;SDS011;50745;48.170;14.516;2023-01-08T20:39:52;4.68;;;3.38;;
64419;SDS011;50745;48.170;14.516;2023-01-08T20:50:20;5.75;;;3.80;;
64419;SDS011;50745;48.170;14.516;2023-01-08T21:00:28;5.35;;;4.00;;
64419;SDS011;50745;48.170;14.516;2023-01-08T21:10:56;5.50;;;4.18;;
64419;SDS011;50745;48.170;14.516;2023-01-08T21:21:04;5.10;;;3.80;;
64419;SDS011;50745;48.170;14.516;2023-01-08T21:31:32;5.22;;;3.95;;
64419;SDS011;50745;48.170;14.516;2023-01-08T21:41:40;5.85;;;4.10;;
64419;SDS011;50745;48.170;14.516;2023-01-08T21:52:26;5.13;;;4.13;;
64419;SDS011;50745;48.170;14.516;2023-01-08T22:03:16;6.50;;;4.18;;
64419;SDS011;50745;48.170;14.516;2023-01-08T22:13:44;4.47;;;3.63;;
64419;SDS011;50745;48.170;14.516;2023-01-08T22:23:53;5.32;;;4.20;;
64419;SDS011;50745;48.170;14.516;2023-01-08T22:34:21;5.05;;;3.97;;
64419;SDS011;50745;48.170;14.516;2023-01-08T22:44:29;5.38;;;4.20;;
64419;SDS011;50745;48.170;14.516;2023-01-08T22:54:57;4.88;;;3.80;;
64419;SDS011;50745;48.170;14.516;2023-01-08T23:05:12;6.00;;;3.72;;
64419;SDS011;50745;48.170;14.516;2023-01-08T23:15:32;5.93;;;4.30;;
64419;SDS011;50745;48.170;14.516;2023-01-08T23:25:47;5.70;;;4.50;;
64419;SDS011;50745;48.170;14.516;2023-01-08T23:36:07;4.80;;;3.80;;
64419;SDS011;50745;48.170;14.516;2023-01-08T23:46:22;4.75;;;3.78;;
64419;SDS011;50745;48.170;14.516;2023-01-08T23:56:42;4.88;;;3.53;;
